sensor_id;sensor_type;location;lat;lon;timestamp;pressure;altitude;pressure_sealevel;temperature;humidity
50684;BME280;36654;45.042;38.994;2022-08-25T00:01:23;100520.28;;;25.34;33.40
50684;BME280;36654;45.042;38.994;2022-08-25T00:03:49;100502.66;;;25.25;33.87
50684;BME280;36654;45.042;38.994;2022-08-25T00:06:15;100512.28;;;25.31;34.21
50684;BME280;36654;45.042;38.994;2022-08-25T00:08:41;100520.84;;;25.23;34.20
50684;BME280;36654;45.042;38.994;2022-08-25T00:11:11;100512.19;;;25.16;35.22
50684;BME280;36654;45.042;38.994;2022-08-25T00:13:38;100521.09;;;25.18;35.37
50684;BME280;36654;45.042;38.994;2022-08-25T00:16:07;100535.63;;;25.17;35.64
50684;BME280;36654;45.042;38.994;2022-08-25T00:18:33;100522.34;;;25.11;35.84
50684;BME280;36654;45.042;38.994;2022-08-25T00:20:58;100506.22;;;25.08;36.26
50684;BME280;36654;45.042;38.994;2022-08-25T00:23:24;100496.69;;;25.01;36.82
50684;BME280;36654;45.042;38.994;2022-08-25T00:25:50;100517.41;;;25.02;36.77
50684;BME280;36654;45.042;38.994;2022-08-25T00:28:16;100494.44;;;24.92;37.21
50684;BME280;36654;45.042;38.994;2022-08-25T00:30:43;100499.53;;;24.98;37.63
50684;BME280;36654;45.042;38.994;2022-08-25T00:33:08;100491.72;;;24.92;37.96
50684;BME280;36654;45.042;38.994;2022-08-25T00:35:34;100495.72;;;24.85;38.67
50684;BME280;36654;45.042;38.994;2022-08-25T00:38:00;100499.28;;;24.85;38.69
50684;BME280;36654;45.042;38.994;2022-08-25T00:40:27;100479.91;;;24.75;38.84
50684;BME280;36654;45.042;38.994;2022-08-25T00:42:53;100497.84;;;24.78;39.33
50684;BME280;36654;45.042;38.994;2022-08-25T00:45:21;100507.81;;;24.78;39.73
50684;BME280;36654;45.042;38.994;2022-08-25T00:47:47;100489.91;;;24.75;39.76
50684;BME280;36654;45.042;38.994;2022-08-25T00:50:14;100499.06;;;24.72;40.06
50684;BME280;36654;45.042;38.994;2022-08-25T00:52:45;100496.81;;;24.63;40.71
50684;BME280;36654;45.042;38.994;2022-08-25T00:57:43;100495.88;;;24.64;40.74
50684;BME280;36654;45.042;38.994;2022-08-25T01:03:05;100490.75;;;24.58;41.51
50684;BME280;36654;45.042;38.994;2022-08-25T01:05:31;100500.31;;;24.48;41.43
50684;BME280;36654;45.042;38.994;2022-08-25T01:08:00;100487.50;;;24.51;41.57
50684;BME280;36654;45.042;38.994;2022-08-25T01:10:31;100502.06;;;24.49;41.80
50684;BME280;36654;45.042;38.994;2022-08-25T01:13:07;100506.75;;;24.45;41.87
50684;BME280;36654;45.042;38.994;2022-08-25T01:15:34;100498.81;;;24.41;41.80
50684;BME280;36654;45.042;38.994;2022-08-25T01:18:00;100495.63;;;24.32;42.13
50684;BME280;36654;45.042;38.994;2022-08-25T01:20:28;100509.81;;;24.38;42.18
50684;BME280;36654;45.042;38.994;2022-08-25T01:22:56;100515.38;;;24.35;42.74
50684;BME280;36654;45.042;38.994;2022-08-25T01:25:48;100502.94;;;24.30;42.94
50684;BME280;36654;45.042;38.994;2022-08-25T01:28:16;100497.19;;;24.19;43.00
50684;BME280;36654;45.042;38.994;2022-08-25T01:30:42;100505.09;;;24.24;42.98
50684;BME280;36654;45.042;38.994;2022-08-25T01:33:09;100505.16;;;24.22;42.81
50684;BME280;36654;45.042;38.994;2022-08-25T01:35:35;100525.09;;;24.21;43.07
50684;BME280;36654;45.042;38.994;2022-08-25T01:38:03;100485.19;;;24.06;43.21
50684;BME280;36654;45.042;38.994;2022-08-25T01:40:29;100511.81;;;24.15;43.35
50684;BME280;36654;45.042;38.994;2022-08-25T01:45:42;100496.97;;;24.05;43.23
50684;BME280;36654;45.042;38.994;2022-08-25T01:48:10;100500.50;;;24.07;43.57
50684;BME280;36654;45.042;38.994;2022-08-25T01:50:36;100500.66;;;24.04;43.70
50684;BME280;36654;45.042;38.994;2022-08-25T01:53:07;100478.56;;;23.94;43.82
50684;BME280;36654;45.042;38.994;2022-08-25T01:55:33;100480.53;;;23.90;43.62
50684;BME280;36654;45.042;38.994;2022-08-25T01:58:33;100485.56;;;23.98;43.95
50684;BME280;36654;45.042;38.994;2022-08-25T02:01:02;100505.63;;;23.94;44.04
50684;BME280;36654;45.042;38.994;2022-08-25T02:03:29;100497.72;;;23.89;44.38
50684;BME280;36654;45.042;38.994;2022-08-25T02:05:56;100482.06;;;23.77;44.30
50684;BME280;36654;45.042;38.994;2022-08-25T02:08:23;100496.91;;;23.87;44.60
50684;BME280;36654;45.042;38.994;2022-08-25T02:10:50;100513.47;;;23.81;44.72
50684;BME280;36654;45.042;38.994;2022-08-25T02:13:16;100502.84;;;23.77;44.89
50684;BME280;36654;45.042;38.994;2022-08-25T02:15:45;100526.31;;;23.76;44.91
50684;BME280;36654;45.042;38.994;2022-08-25T02:18:11;100502.38;;;23.67;44.96
50684;BME280;36654;45.042;38.994;2022-08-25T02:20:38;100513.03;;;23.70;44.95
50684;BME280;36654;45.042;38.994;2022-08-25T02:23:04;100448.06;;;23.32;45.17
50684;BME280;36654;45.042;38.994;2022-08-25T02:25:31;100509.66;;;23.65;44.95
50684;BME280;36654;45.042;38.994;2022-08-25T02:27:58;100512.44;;;23.63;45.50
50684;BME280;36654;45.042;38.994;2022-08-25T02:30:24;100517.19;;;23.58;45.34
50684;BME280;36654;45.042;38.994;2022-08-25T02:32:49;100511.06;;;23.55;45.63
50684;BME280;36654;45.042;38.994;2022-08-25T02:35:16;100518.50;;;23.50;45.91
50684;BME280;36654;45.042;38.994;2022-08-25T02:37:42;100504.22;;;23.46;45.72
50684;BME280;36654;45.042;38.994;2022-08-25T02:40:08;100520.34;;;23.49;45.78
50684;BME280;36654;45.042;38.994;2022-08-25T02:42:34;100528.38;;;23.51;45.90
50684;BME280;36654;45.042;38.994;2022-08-25T02:45:00;100471.09;;;23.22;45.92
50684;BME280;36654;45.042;38.994;2022-08-25T02:47:26;100515.84;;;23.48;46.13
50684;BME280;36654;45.042;38.994;2022-08-25T02:49:52;100509.56;;;23.47;46.16
50684;BME280;36654;45.042;38.994;2022-08-25T02:52:17;100515.03;;;23.46;46.35
50684;BME280;36654;45.042;38.994;2022-08-25T02:54:43;100532.03;;;23.50;46.19
50684;BME280;36654;45.042;38.994;2022-08-25T02:57:09;100510.38;;;23.50;45.87
50684;BME280;36654;45.042;38.994;2022-08-25T02:59:37;100516.47;;;23.55;46.18
50684;BME280;36654;45.042;38.994;2022-08-25T03:02:04;100529.44;;;23.67;46.00
50684;BME280;36654;45.042;38.994;2022-08-25T03:04:30;100532.53;;;23.78;45.49
50684;BME280;36654;45.042;38.994;2022-08-25T03:06:56;100526.19;;;23.79;45.35
50684;BME280;36654;45.042;38.994;2022-08-25T03:09:22;100529.91;;;23.96;45.58
50684;BME280;36654;45.042;38.994;2022-08-25T03:11:48;100535.91;;;24.02;45.48
50684;BME280;36654;45.042;38.994;2022-08-25T03:14:14;100513.22;;;24.05;45.30
50684;BME280;36654;45.042;38.994;2022-08-25T03:16:40;100522.72;;;24.14;44.96
50684;BME280;36654;45.042;38.994;2022-08-25T03:19:06;100522.22;;;24.24;44.79
50684;BME280;36654;45.042;38.994;2022-08-25T03:21:32;100542.03;;;24.44;44.58
50684;BME280;36654;45.042;38.994;2022-08-25T03:23:58;100528.84;;;24.55;44.41
50684;BME280;36654;45.042;38.994;2022-08-25T03:26:24;100511.56;;;24.58;44.08
50684;BME280;36654;45.042;38.994;2022-08-25T03:29:09;100532.69;;;24.86;43.88
50684;BME280;36654;45.042;38.994;2022-08-25T03:31:36;100546.25;;;25.03;43.43
50684;BME280;36654;45.042;38.994;2022-08-25T03:34:02;100536.59;;;25.16;43.01
50684;BME280;36654;45.042;38.994;2022-08-25T03:36:28;100528.91;;;25.25;43.08
50684;BME280;36654;45.042;38.994;2022-08-25T03:38:54;100520.91;;;25.39;42.82
50684;BME280;36654;45.042;38.994;2022-08-25T03:41:23;100523.75;;;25.53;42.76
50684;BME280;36654;45.042;38.994;2022-08-25T03:43:50;100554.22;;;25.58;42.24
50684;BME280;36654;45.042;38.994;2022-08-25T03:46:20;100520.34;;;25.66;42.23
50684;BME280;36654;45.042;38.994;2022-08-25T03:48:48;100519.06;;;25.73;42.24
50684;BME280;36654;45.042;38.994;2022-08-25T03:51:29;100522.25;;;25.81;42.31
50684;BME280;36654;45.042;38.994;2022-08-25T03:53:56;100500.59;;;25.79;42.04
50684;BME280;36654;45.042;38.994;2022-08-25T03:56:23;100537.03;;;26.09;41.72
50684;BME280;36654;45.042;38.994;2022-08-25T03:58:49;100526.59;;;26.17;41.47
50684;BME280;36654;45.042;38.994;2022-08-25T04:01:16;100506.00;;;25.97;41.51
50684;BME280;36654;45.042;38.994;2022-08-25T04:03:42;100528.00;;;26.24;41.52
50684;BME280;36654;45.042;38.994;2022-08-25T04:06:08;100475.69;;;26.04;41.34
50684;BME280;36654;45.042;38.994;2022-08-25T04:08:35;100526.84;;;26.44;41.18
50684;BME280;36654;45.042;38.994;2022-08-25T04:11:06;100544.63;;;26.50;40.67
50684;BME280;36654;45.042;38.994;2022-08-25T04:13:31;100515.72;;;26.49;40.72
50684;BME280;36654;45.042;38.994;2022-08-25T04:15:57;100528.44;;;26.64;40.64
50684;BME280;36654;45.042;38.994;2022-08-25T04:18:23;100514.59;;;26.83;40.28
50684;BME280;36654;45.042;38.994;2022-08-25T04:20:48;100468.09;;;26.57;40.63
50684;BME280;36654;45.042;38.994;2022-08-25T04:23:14;100508.69;;;26.90;40.14
50684;BME280;36654;45.042;38.994;2022-08-25T04:25:40;100508.13;;;27.00;40.23
50684;BME280;36654;45.042;38.994;2022-08-25T04:28:07;100533.22;;;27.05;40.49
50684;BME280;36654;45.042;38.994;2022-08-25T04:30:33;100490.25;;;26.96;40.27
50684;BME280;36654;45.042;38.994;2022-08-25T04:32:59;100514.25;;;27.19;40.35
50684;BME280;36654;45.042;38.994;2022-08-25T04:35:25;100530.38;;;27.22;40.47
50684;BME280;36654;45.042;38.994;2022-08-25T04:37:51;100526.50;;;27.26;40.44
50684;BME280;36654;45.042;38.994;2022-08-25T04:40:17;100542.66;;;27.44;40.12
50684;BME280;36654;45.042;38.994;2022-08-25T04:42:42;100486.28;;;27.31;39.68
50684;BME280;36654;45.042;38.994;2022-08-25T04:45:09;100535.88;;;27.51;40.20
50684;BME280;36654;45.042;38.994;2022-08-25T04:47:37;100526.72;;;27.66;40.00
50684;BME280;36654;45.042;38.994;2022-08-25T04:50:04;100510.22;;;27.84;39.75
50684;BME280;36654;45.042;38.994;2022-08-25T04:52:31;100515.94;;;27.93;39.37
50684;BME280;36654;45.042;38.994;2022-08-25T04:54:57;100525.94;;;28.07;39.54
50684;BME280;36654;45.042;38.994;2022-08-25T04:57:22;100532.47;;;28.05;39.34
50684;BME280;36654;45.042;38.994;2022-08-25T04:59:48;100529.25;;;27.98;39.63
50684;BME280;36654;45.042;38.994;2022-08-25T05:02:14;100519.41;;;27.95;40.75
50684;BME280;36654;45.042;38.994;2022-08-25T05:04:39;100523.03;;;27.96;40.65
50684;BME280;36654;45.042;38.994;2022-08-25T05:07:05;100513.31;;;27.92;40.12
50684;BME280;36654;45.042;38.994;2022-08-25T05:09:31;100518.69;;;27.93;40.39
50684;BME280;36654;45.042;38.994;2022-08-25T05:11:57;100516.63;;;27.97;40.62
50684;BME280;36654;45.042;38.994;2022-08-25T05:14:23;100517.69;;;27.94;40.47
50684;BME280;36654;45.042;38.994;2022-08-25T05:16:49;100476.66;;;27.69;40.46
50684;BME280;36654;45.042;38.994;2022-08-25T05:19:15;100490.72;;;27.75;40.65
50684;BME280;36654;45.042;38.994;2022-08-25T05:21:41;100508.28;;;27.86;40.99
50684;BME280;36654;45.042;38.994;2022-08-25T05:24:07;100530.72;;;27.89;40.75
50684;BME280;36654;45.042;38.994;2022-08-25T05:26:34;100521.13;;;27.84;40.83
50684;BME280;36654;45.042;38.994;2022-08-25T05:29:02;100505.31;;;27.74;41.32
50684;BME280;36654;45.042;38.994;2022-08-25T05:31:30;100506.31;;;27.73;41.44
50684;BME280;36654;45.042;38.994;2022-08-25T05:33:56;100522.31;;;27.78;41.24
50684;BME280;36654;45.042;38.994;2022-08-25T05:36:24;100527.88;;;27.62;42.15
50684;BME280;36654;45.042;38.994;2022-08-25T05:38:51;100499.50;;;27.52;42.16
50684;BME280;36654;45.042;38.994;2022-08-25T05:41:19;100491.31;;;27.38;42.79
50684;BME280;36654;45.042;38.994;2022-08-25T05:43:47;100509.78;;;27.32;42.48
50684;BME280;36654;45.042;38.994;2022-08-25T05:46:14;100494.56;;;27.14;42.87
50684;BME280;36654;45.042;38.994;2022-08-25T05:48:41;100498.31;;;26.97;43.22
50684;BME280;36654;45.042;38.994;2022-08-25T05:51:08;100521.28;;;26.77;43.69
50684;BME280;36654;45.042;38.994;2022-08-25T05:53:38;100490.47;;;26.46;43.92
50684;BME280;36654;45.042;38.994;2022-08-25T05:56:06;100503.69;;;26.53;44.09
50684;BME280;36654;45.042;38.994;2022-08-25T05:58:31;100498.41;;;26.50;44.30
50684;BME280;36654;45.042;38.994;2022-08-25T06:00:59;100495.44;;;26.38;44.66
50684;BME280;36654;45.042;38.994;2022-08-25T06:03:44;100511.50;;;26.27;44.56
50684;BME280;36654;45.042;38.994;2022-08-25T06:06:09;100493.88;;;26.18;44.72
50684;BME280;36654;45.042;38.994;2022-08-25T06:08:35;100514.38;;;26.08;45.32
50684;BME280;36654;45.042;38.994;2022-08-25T06:11:00;100521.94;;;26.03;45.25
50684;BME280;36654;45.042;38.994;2022-08-25T06:13:26;100503.03;;;26.01;45.53
50684;BME280;36654;45.042;38.994;2022-08-25T06:15:56;100514.13;;;26.13;44.89
50684;BME280;36654;45.042;38.994;2022-08-25T06:18:22;100504.06;;;26.15;45.06
50684;BME280;36654;45.042;38.994;2022-08-25T06:20:48;100488.81;;;26.12;45.46
50684;BME280;36654;45.042;38.994;2022-08-25T06:23:14;100510.19;;;26.02;46.09
50684;BME280;36654;45.042;38.994;2022-08-25T06:25:40;100509.94;;;25.91;46.22
50684;BME280;36654;45.042;38.994;2022-08-25T06:28:06;100512.66;;;25.91;46.11
50684;BME280;36654;45.042;38.994;2022-08-25T06:30:31;100527.00;;;25.93;46.11
50684;BME280;36654;45.042;38.994;2022-08-25T06:32:57;100533.69;;;26.03;46.07
50684;BME280;36654;45.042;38.994;2022-08-25T06:35:23;100477.22;;;25.77;45.37
50684;BME280;36654;45.042;38.994;2022-08-25T06:37:48;100506.00;;;26.13;45.38
50684;BME280;36654;45.042;38.994;2022-08-25T06:40:14;100469.22;;;25.91;45.14
50684;BME280;36654;45.042;38.994;2022-08-25T06:42:41;100535.78;;;26.30;45.21
50684;BME280;36654;45.042;38.994;2022-08-25T06:45:07;100515.97;;;26.28;44.81
50684;BME280;36654;45.042;38.994;2022-08-25T06:47:34;100515.81;;;26.31;44.97
50684;BME280;36654;45.042;38.994;2022-08-25T06:49:59;100530.16;;;26.33;44.74
50684;BME280;36654;45.042;38.994;2022-08-25T06:52:26;100534.28;;;26.40;44.82
50684;BME280;36654;45.042;38.994;2022-08-25T06:54:51;100538.50;;;26.46;44.77
50684;BME280;36654;45.042;38.994;2022-08-25T06:57:17;100540.16;;;26.49;44.57
50684;BME280;36654;45.042;38.994;2022-08-25T08:07:28;100477.69;;;27.81;42.71
50684;BME280;36654;45.042;38.994;2022-08-25T08:09:56;100455.25;;;27.91;42.62
50684;BME280;36654;45.042;38.994;2022-08-25T08:12:23;100474.38;;;28.04;42.36
50684;BME280;36654;45.042;38.994;2022-08-25T08:14:50;100480.97;;;28.14;41.46
50684;BME280;36654;45.042;38.994;2022-08-25T08:17:17;100475.09;;;28.21;41.36
50684;BME280;36654;45.042;38.994;2022-08-25T08:19:43;100454.28;;;28.20;41.64
50684;BME280;36654;45.042;38.994;2022-08-25T08:22:09;100428.03;;;28.18;41.20
50684;BME280;36654;45.042;38.994;2022-08-25T08:24:39;100397.88;;;28.07;41.32
50684;BME280;36654;45.042;38.994;2022-08-25T08:27:06;100473.00;;;28.38;41.53
50684;BME280;36654;45.042;38.994;2022-08-25T08:29:33;100461.41;;;28.49;41.25
50684;BME280;36654;45.042;38.994;2022-08-25T08:32:01;100450.63;;;28.60;40.86
50684;BME280;36654;45.042;38.994;2022-08-25T08:34:28;100443.66;;;28.56;40.32
50684;BME280;36654;45.042;38.994;2022-08-25T08:36:55;100448.25;;;28.69;40.29
50684;BME280;36654;45.042;38.994;2022-08-25T08:39:21;100436.50;;;28.81;40.37
50684;BME280;36654;45.042;38.994;2022-08-25T08:41:58;100447.75;;;28.89;40.75
50684;BME280;36654;45.042;38.994;2022-08-25T08:53:12;100443.59;;;29.48;38.98
50684;BME280;36654;45.042;38.994;2022-08-25T08:55:42;100430.41;;;29.54;38.47
50684;BME280;36654;45.042;38.994;2022-08-25T08:58:31;100430.41;;;29.54;38.81
50684;BME280;36654;45.042;38.994;2022-08-25T09:01:00;100434.53;;;29.60;38.36
50684;BME280;36654;45.042;38.994;2022-08-25T09:03:38;100417.75;;;29.66;38.55
50684;BME280;36654;45.042;38.994;2022-08-25T09:06:10;100459.88;;;29.75;37.74
50684;BME280;36654;45.042;38.994;2022-08-25T09:08:38;100451.06;;;29.71;37.90
50684;BME280;36654;45.042;38.994;2022-08-25T09:14:19;100451.88;;;29.84;37.64
50684;BME280;36654;45.042;38.994;2022-08-25T09:17:00;100403.47;;;29.86;37.61
50684;BME280;36654;45.042;38.994;2022-08-25T09:19:40;100425.09;;;29.89;37.85
50684;BME280;36654;45.042;38.994;2022-08-25T09:22:38;100421.41;;;29.78;37.81
50684;BME280;36654;45.042;38.994;2022-08-25T09:28:17;100414.34;;;29.99;37.18
50684;BME280;36654;45.042;38.994;2022-08-25T09:30:57;100419.19;;;29.96;37.32
50684;BME280;36654;45.042;38.994;2022-08-25T09:33:24;100399.97;;;29.84;37.92
50684;BME280;36654;45.042;38.994;2022-08-25T09:35:52;100384.72;;;29.69;37.62
50684;BME280;36654;45.042;38.994;2022-08-25T09:38:19;100417.22;;;29.85;37.43
50684;BME280;36654;45.042;38.994;2022-08-25T09:40:51;100403.81;;;29.82;37.33
50684;BME280;36654;45.042;38.994;2022-08-25T09:43:28;100410.91;;;29.84;37.45
50684;BME280;36654;45.042;38.994;2022-08-25T09:45:59;100418.28;;;29.95;37.10
50684;BME280;36654;45.042;38.994;2022-08-25T09:48:47;100429.28;;;30.06;37.03
50684;BME280;36654;45.042;38.994;2022-08-25T09:51:32;100421.97;;;30.07;36.75
50684;BME280;36654;45.042;38.994;2022-08-25T09:54:03;100414.47;;;30.22;36.85
50684;BME280;36654;45.042;38.994;2022-08-25T09:56:32;100378.38;;;30.29;36.53
50684;BME280;36654;45.042;38.994;2022-08-25T09:59:21;100406.50;;;30.43;36.00
50684;BME280;36654;45.042;38.994;2022-08-25T10:04:14;100364.19;;;30.24;35.43
50684;BME280;36654;45.042;38.994;2022-08-25T10:06:49;100356.50;;;30.29;35.40
50684;BME280;36654;45.042;38.994;2022-08-25T10:09:34;100395.88;;;30.62;35.46
50684;BME280;36654;45.042;38.994;2022-08-25T10:12:15;100386.72;;;30.74;35.38
50684;BME280;36654;45.042;38.994;2022-08-25T10:14:42;100366.38;;;30.90;35.43
50684;BME280;36654;45.042;38.994;2022-08-25T10:17:27;100423.16;;;31.10;34.64
50684;BME280;36654;45.042;38.994;2022-08-25T10:22:34;100390.53;;;31.07;33.83
50684;BME280;36654;45.042;38.994;2022-08-25T10:25:01;100374.34;;;31.04;34.62
50684;BME280;36654;45.042;38.994;2022-08-25T10:27:41;100396.88;;;31.08;34.24
50684;BME280;36654;45.042;38.994;2022-08-25T10:30:20;100385.56;;;31.01;34.21
50684;BME280;36654;45.042;38.994;2022-08-25T10:38:43;100366.66;;;30.98;34.44
50684;BME280;36654;45.042;38.994;2022-08-25T10:54:47;100339.00;;;31.35;33.94
50684;BME280;36654;45.042;38.994;2022-08-25T11:00:21;100279.66;;;31.24;33.76
50684;BME280;36654;45.042;38.994;2022-08-25T11:03:10;100320.88;;;31.45;33.83
50684;BME280;36654;45.042;38.994;2022-08-25T11:05:42;100390.44;;;31.43;33.57
50684;BME280;36654;45.042;38.994;2022-08-25T11:08:16;100325.34;;;31.46;33.00
50684;BME280;36654;45.042;38.994;2022-08-25T11:10:47;100317.13;;;31.24;33.03
50684;BME280;36654;45.042;38.994;2022-08-25T11:13:24;100295.59;;;31.19;33.17
50684;BME280;36654;45.042;38.994;2022-08-25T11:15:57;100331.53;;;31.59;33.39
50684;BME280;36654;45.042;38.994;2022-08-25T11:18:26;100332.75;;;31.67;33.57
50684;BME280;36654;45.042;38.994;2022-08-25T11:23:30;100339.47;;;31.74;33.31
50684;BME280;36654;45.042;38.994;2022-08-25T11:26:04;100319.09;;;31.55;33.53
50684;BME280;36654;45.042;38.994;2022-08-25T11:28:39;100317.34;;;31.54;33.08
50684;BME280;36654;45.042;38.994;2022-08-25T11:31:08;100357.63;;;31.75;33.07
50684;BME280;36654;45.042;38.994;2022-08-25T11:33:35;100278.03;;;31.22;33.47
50684;BME280;36654;45.042;38.994;2022-08-25T11:42:26;100371.75;;;31.70;33.32
50684;BME280;36654;45.042;38.994;2022-08-25T11:47:50;100347.47;;;31.66;33.04
50684;BME280;36654;45.042;38.994;2022-08-25T11:52:53;100339.94;;;31.90;33.28
50684;BME280;36654;45.042;38.994;2022-08-25T11:55:27;100337.91;;;31.92;33.62
50684;BME280;36654;45.042;38.994;2022-08-25T11:58:14;100353.88;;;31.98;33.16
50684;BME280;36654;45.042;38.994;2022-08-25T12:00:42;100350.63;;;31.93;33.05
50684;BME280;36654;45.042;38.994;2022-08-25T12:06:34;100349.91;;;31.80;33.07
50684;BME280;36654;45.042;38.994;2022-08-25T12:11:45;100366.00;;;31.73;32.79
50684;BME280;36654;45.042;38.994;2022-08-25T13:29:58;100270.13;;;32.48;28.55
50684;BME280;36654;45.042;38.994;2022-08-25T13:32:30;100257.06;;;32.61;28.57
50684;BME280;36654;45.042;38.994;2022-08-25T13:37:47;100252.88;;;32.87;28.01
50684;BME280;36654;45.042;38.994;2022-08-25T13:40:26;100248.13;;;32.99;27.58
50684;BME280;36654;45.042;38.994;2022-08-25T13:43:08;100258.19;;;33.10;27.03
50684;BME280;36654;45.042;38.994;2022-08-25T13:45:41;100248.34;;;33.17;26.93
50684;BME280;36654;45.042;38.994;2022-08-25T13:48:11;100251.41;;;33.24;26.52
50684;BME280;36654;45.042;38.994;2022-08-25T13:50:40;100249.53;;;33.24;26.36
50684;BME280;36654;45.042;38.994;2022-08-25T13:53:19;100264.13;;;33.25;26.65
50684;BME280;36654;45.042;38.994;2022-08-25T13:56:00;100241.88;;;33.18;25.65
50684;BME280;36654;45.042;38.994;2022-08-25T13:58:29;100234.50;;;33.19;25.65
50684;BME280;36654;45.042;38.994;2022-08-25T14:01:29;100259.94;;;33.21;25.88
50684;BME280;36654;45.042;38.994;2022-08-25T14:03:55;100243.47;;;33.21;25.77
50684;BME280;36654;45.042;38.994;2022-08-25T14:06:23;100242.59;;;33.20;26.00
50684;BME280;36654;45.042;38.994;2022-08-25T14:14:08;100253.72;;;33.19;24.93
50684;BME280;36654;45.042;38.994;2022-08-25T14:17:01;100222.06;;;33.24;25.17
50684;BME280;36654;45.042;38.994;2022-08-25T14:19:27;100183.75;;;33.03;24.42
50684;BME280;36654;45.042;38.994;2022-08-25T14:21:54;100180.38;;;33.00;24.71
50684;BME280;36654;45.042;38.994;2022-08-25T14:24:24;100238.56;;;33.24;24.60
50684;BME280;36654;45.042;38.994;2022-08-25T14:26:52;100213.09;;;33.22;24.25
50684;BME280;36654;45.042;38.994;2022-08-25T14:29:18;100197.94;;;33.18;23.99
50684;BME280;36654;45.042;38.994;2022-08-25T14:31:45;100218.59;;;33.22;24.12
50684;BME280;36654;45.042;38.994;2022-08-25T14:34:16;100207.63;;;33.22;24.06
50684;BME280;36654;45.042;38.994;2022-08-25T14:36:42;100198.94;;;33.17;23.95
50684;BME280;36654;45.042;38.994;2022-08-25T14:39:09;100208.31;;;33.15;23.97
50684;BME280;36654;45.042;38.994;2022-08-25T14:41:37;100191.72;;;33.16;24.05
50684;BME280;36654;45.042;38.994;2022-08-25T14:44:06;100197.22;;;33.16;23.94
50684;BME280;36654;45.042;38.994;2022-08-25T15:07:38;100169.13;;;32.62;24.81
50684;BME280;36654;45.042;38.994;2022-08-25T15:10:22;100201.91;;;32.64;24.41
50684;BME280;36654;45.042;38.994;2022-08-25T15:12:48;100140.88;;;32.41;24.63
50684;BME280;36654;45.042;38.994;2022-08-25T15:15:15;100184.44;;;32.65;24.32
50684;BME280;36654;45.042;38.994;2022-08-25T15:17:43;100178.53;;;32.70;24.40
50684;BME280;36654;45.042;38.994;2022-08-25T15:20:10;100177.09;;;32.65;24.27
50684;BME280;36654;45.042;38.994;2022-08-25T15:22:36;100163.22;;;32.67;23.95
50684;BME280;36654;45.042;38.994;2022-08-25T15:25:01;100189.06;;;32.64;24.36
50684;BME280;36654;45.042;38.994;2022-08-25T15:27:27;100156.75;;;32.47;24.34
50684;BME280;36654;45.042;38.994;2022-08-25T15:29:54;100154.66;;;32.51;24.08
50684;BME280;36654;45.042;38.994;2022-08-25T15:32:19;100181.81;;;32.54;23.65
50684;BME280;36654;45.042;38.994;2022-08-25T15:34:46;100152.19;;;32.48;23.73
50684;BME280;36654;45.042;38.994;2022-08-25T15:37:14;100166.88;;;32.47;23.78
50684;BME280;36654;45.042;38.994;2022-08-25T15:39:42;100178.13;;;32.43;23.40
50684;BME280;36654;45.042;38.994;2022-08-25T15:42:08;100164.69;;;32.40;23.77
50684;BME280;36654;45.042;38.994;2022-08-25T15:44:37;100152.53;;;32.33;23.52
50684;BME280;36654;45.042;38.994;2022-08-25T15:47:05;100174.81;;;32.19;23.25
50684;BME280;36654;45.042;38.994;2022-08-25T15:49:31;100146.22;;;32.12;23.45
50684;BME280;36654;45.042;38.994;2022-08-25T15:51:57;100172.06;;;32.19;23.36
50684;BME280;36654;45.042;38.994;2022-08-25T15:54:23;100146.59;;;32.07;23.21
50684;BME280;36654;45.042;38.994;2022-08-25T15:56:51;100168.78;;;32.25;23.22
50684;BME280;36654;45.042;38.994;2022-08-25T15:59:18;100170.53;;;32.26;22.91
50684;BME280;36654;45.042;38.994;2022-08-25T16:01:43;100152.59;;;32.22;22.73
50684;BME280;36654;45.042;38.994;2022-08-25T16:04:10;100176.53;;;32.20;22.91
50684;BME280;36654;45.042;38.994;2022-08-25T16:06:36;100180.59;;;32.16;23.18
50684;BME280;36654;45.042;38.994;2022-08-25T16:09:03;100155.16;;;32.14;22.97
50684;BME280;36654;45.042;38.994;2022-08-25T16:11:30;100131.88;;;31.87;22.82
50684;BME280;36654;45.042;38.994;2022-08-25T16:13:57;100123.19;;;31.82;22.52
50684;BME280;36654;45.042;38.994;2022-08-25T16:16:25;100159.06;;;32.11;22.68
50684;BME280;36654;45.042;38.994;2022-08-25T16:18:51;100138.31;;;31.97;22.84
50684;BME280;36654;45.042;38.994;2022-08-25T16:21:20;100150.94;;;32.10;22.83
50684;BME280;36654;45.042;38.994;2022-08-25T16:23:48;100176.44;;;32.00;22.61
50684;BME280;36654;45.042;38.994;2022-08-25T16:26:14;100167.34;;;32.00;22.78
50684;BME280;36654;45.042;38.994;2022-08-25T16:28:41;100173.72;;;32.00;22.78
50684;BME280;36654;45.042;38.994;2022-08-25T16:31:12;100185.94;;;31.96;22.56
50684;BME280;36654;45.042;38.994;2022-08-25T16:33:38;100176.34;;;31.91;22.64
50684;BME280;36654;45.042;38.994;2022-08-25T16:38:35;100180.69;;;31.93;22.51
50684;BME280;36654;45.042;38.994;2022-08-25T16:41:05;100161.91;;;31.89;22.78
50684;BME280;36654;45.042;38.994;2022-08-25T16:43:31;100159.28;;;31.87;22.31
50684;BME280;36654;45.042;38.994;2022-08-25T16:46:01;100119.84;;;31.57;22.63
50684;BME280;36654;45.042;38.994;2022-08-25T16:48:28;100187.25;;;31.81;22.60
50684;BME280;36654;45.042;38.994;2022-08-25T16:50:55;100151.16;;;31.76;22.74
50684;BME280;36654;45.042;38.994;2022-08-25T16:53:20;100159.41;;;31.65;22.69
50684;BME280;36654;45.042;38.994;2022-08-25T16:56:05;100155.81;;;31.64;22.51